Time,TemperatureF,DewpointF,PressureIn,WindDirection,WindDirectionDegrees,WindSpeedMPH,WindSpeedGustMPH,Humidity,HourlyPrecipIn,Conditions,Clouds,dailyrainin,SoftwareType,DateUTC
2013-01-07 00:00:00,41.9,11.2,17.72,North,4,0.0,0.0,28,0.00,,CLR,0.00,VWS V14.01,2013-01-07 07:00:00,
2013-01-07 00:06:00,41.7,11.0,17.72,North,357,4.0,4.0,28,0.00,,CLR,0.00,VWS V14.01,2013-01-07 07:06:00,
2013-01-07 00:11:00,41.7,11.0,17.72,North,357,5.4,5.4,28,0.00,,CLR,0.00,VWS V14.01,2013-01-07 07:11:00,
2013-01-07 00:17:00,41.4,11.5,17.72,North,357,4.0,4.0,29,0.00,,CLR,0.00,VWS V14.01,2013-01-07 07:17:00,
2013-01-07 00:22:00,41.2,11.4,17.72,North,357,4.0,4.0,29,0.00,,CLR,0.00,VWS V14.01,2013-01-07 07:22:00,
2013-01-07 00:27:00,41.0,11.2,17.72,North,357,5.4,5.4,29,0.00,,CLR,0.00,VWS V14.01,2013-01-07 07:27:00,
2013-01-07 00:32:00,40.8,11.0,17.72,NNW,348,3.1,3.1,29,0.00,,CLR,0.00,VWS V14.01,2013-01-07 07:32:00,
2013-01-07 00:38:00,40.8,11.0,17.72,North,1,3.6,4.0,29,0.00,,CLR,0.00,VWS V14.01,2013-01-07 07:38:00,
2013-01-07 00:43:00,40.5,11.5,17.72,North,4,5.4,5.4,30,0.00,,CLR,0.00,VWS V14.01,2013-01-07 07:43:00,
2013-01-07 00:49:00,40.5,11.5,17.72,North,6,4.0,4.0,30,0.00,,CLR,0.00,VWS V14.01,2013-01-07 07:49:00,
2013-01-07 00:54:00,40.3,11.3,17.72,North,6,3.6,3.6,30,0.00,,CLR,0.00,VWS V14.01,2013-01-07 07:54:00,
2013-01-07 01:00:00,40.3,11.3,17.72,North,6,4.5,4.9,30,0.00,,CLR,0.00,VWS V14.01,2013-01-07 08:00:00,
2013-01-07 01:05:00,40.3,11.3,17.72,North,6,4.9,4.9,30,0.00,,CLR,0.00,VWS V14.01,2013-01-07 08:05:00,
2013-01-07 01:11:00,40.3,11.3,17.72,North,6,3.1,3.6,30,0.00,,CLR,0.00,VWS V14.01,2013-01-07 08:11:00,
2013-01-07 01:16:00,40.3,11.3,17.72,North,6,2.2,2.2,30,0.00,,CLR,0.00,VWS V14.01,2013-01-07 08:16:00,
2013-01-07 01:22:00,40.3,11.3,17.72,North,6,0.0,0.0,30,0.00,,CLR,0.00,VWS V14.01,2013-01-07 08:22:00,
2013-01-07 01:27:00,40.3,11.3,17.72,North,6,0.0,0.0,30,0.00,,CLR,0.00,VWS V14.01,2013-01-07 08:27:00,
2013-01-07 01:32:00,40.1,11.2,17.72,North,6,0.0,0.0,30,0.00,,CLR,0.00,VWS V14.01,2013-01-07 08:32:00,
2013-01-07 01:37:00,40.1,11.2,17.72,WNW,291,3.6,3.6,30,0.00,,CLR,0.00,VWS V14.01,2013-01-07 08:37:00,
2013-01-07 01:43:00,40.1,11.2,17.72,WNW,290,3.6,3.6,30,0.00,,CLR,0.00,VWS V14.01,2013-01-07 08:43:00,
2013-01-07 01:49:00,40.6,12.4,17.72,WNW,294,4.0,4.0,31,0.00,,CLR,0.00,VWS V14.01,2013-01-07 08:49:00,
2013-01-07 01:55:00,40.8,13.3,17.72,WNW,293,4.0,4.0,32,0.00,,CLR,0.00,VWS V14.01,2013-01-07 08:55:00,
2013-01-07 02:00:00,40.8,14.0,17.72,WNW,293,3.6,3.6,33,0.00,,CLR,0.00,VWS V14.01,2013-01-07 09:00:00,
2013-01-07 02:05:00,40.8,14.0,17.72,NW,307,4.0,4.0,33,0.00,,CLR,0.00,VWS V14.01,2013-01-07 09:05:00,
2013-01-07 02:11:00,40.6,17.0,17.72,NW,322,4.0,4.0,38,0.00,,CLR,0.00,VWS V14.01,2013-01-07 09:11:00,
2013-01-07 02:16:00,40.5,17.5,17.72,NW,316,3.1,3.1,39,0.00,,CLR,0.00,VWS V14.01,2013-01-07 09:16:00,
2013-01-07 02:21:00,40.3,17.3,17.72,NW,316,3.1,3.1,39,0.00,,CLR,0.00,VWS V14.01,2013-01-07 09:21:00,
2013-01-07 02:27:00,40.3,17.3,17.72,North,0,4.9,4.9,39,0.00,,CLR,0.00,VWS V14.01,2013-01-07 09:27:00,
2013-01-07 02:32:00,39.9,17.0,17.72,NNW,331,4.0,4.0,39,0.00,,CLR,0.00,VWS V14.01,2013-01-07 09:32:00,
2013-01-07 02:37:00,39.6,16.7,17.72,NNW,331,4.0,4.0,39,0.00,,CLR,0.00,VWS V14.01,2013-01-07 09:37:00,
2013-01-07 02:42:00,39.4,16.5,17.72,NNW,338,3.6,4.0,39,0.00,,CLR,0.00,VWS V14.01,2013-01-07 09:42:00,
2013-01-07 02:48:00,39.4,16.5,17.72,NNW,338,3.1,3.1,39,0.00,,CLR,0.00,VWS V14.01,2013-01-07 09:48:00,
2013-01-07 02:54:00,39.4,16.5,17.72,NNW,329,3.6,3.6,39,0.00,,CLR,0.00,VWS V14.01,2013-01-07 09:54:00,
2013-01-07 02:59:00,39.4,16.5,17.72,North,0,4.0,4.0,39,0.00,,CLR,0.00,VWS V14.01,2013-01-07 09:59:00,
2013-01-07 03:05:00,39.2,16.3,17.72,NNW,345,4.5,4.5,39,0.00,,CLR,0.00,VWS V14.01,2013-01-07 10:05:00,
2013-01-07 03:10:00,39.2,16.3,17.72,North,357,4.9,4.9,39,0.00,,CLR,0.00,VWS V14.01,2013-01-07 10:10:00,
2013-01-07 03:15:00,39.2,16.3,17.72,North,353,4.0,4.0,39,0.00,,CLR,0.00,VWS V14.01,2013-01-07 10:15:00,
2013-01-07 03:21:00,39.6,16.7,17.72,North,357,4.9,4.9,39,0.00,,CLR,0.00,VWS V14.01,2013-01-07 10:21:00,
2013-01-07 03:26:00,39.6,16.7,17.72,NW,316,3.6,3.6,39,0.00,,CLR,0.00,VWS V14.01,2013-01-07 10:26:00,
2013-01-07 03:31:00,39.7,16.8,17.72,NNW,342,5.8,5.8,39,0.00,,CLR,0.00,VWS V14.01,2013-01-07 10:31:00,
2013-01-07 03:36:00,39.7,16.8,17.72,NNW,327,4.0,4.0,39,0.00,,CLR,0.00,VWS V14.01,2013-01-07 10:36:00,
2013-01-07 03:42:00,39.7,16.8,17.72,NW,325,3.6,3.6,39,0.00,,CLR,0.00,VWS V14.01,2013-01-07 10:42:00,
2013-01-07 03:47:00,40.3,16.7,17.72,NW,325,3.1,3.1,38,0.00,,CLR,0.00,VWS V14.01,2013-01-07 10:47:00,
2013-01-07 03:52:00,40.3,16.1,17.72,NNW,329,4.0,4.0,37,0.00,,CLR,0.00,VWS V14.01,2013-01-07 10:52:00,
2013-01-07 03:58:00,39.6,15.4,17.72,West,274,3.6,4.9,37,0.00,,CLR,0.00,VWS V14.01,2013-01-07 10:58:00,
2013-01-07 04:03:00,39.6,15.4,17.72,WNW,287,4.5,4.5,37,0.00,,CLR,0.00,VWS V14.01,2013-01-07 11:03:00,
2013-01-07 04:08:00,39.9,16.4,17.72,WNW,288,3.6,3.6,38,0.00,,CLR,0.00,VWS V14.01,2013-01-07 11:08:00,
2013-01-07 04:13:00,40.1,17.1,17.72,NW,313,3.6,5.4,39,0.00,,CLR,0.00,VWS V14.01,2013-01-07 11:13:00,
2013-01-07 04:19:00,40.3,17.3,17.72,NW,304,4.0,4.0,39,0.00,,CLR,0.00,VWS V14.01,2013-01-07 11:19:00,
2013-01-07 04:25:00,40.3,17.3,17.72,NW,320,3.6,4.0,39,0.00,,CLR,0.00,VWS V14.01,2013-01-07 11:25:00,
2013-01-07 04:31:00,40.3,17.3,17.72,NW,320,3.6,3.6,39,0.00,,CLR,0.00,VWS V14.01,2013-01-07 11:31:00,
2013-01-07 04:36:00,39.4,15.9,17.72,NW,325,3.1,3.6,38,0.00,,CLR,0.00,VWS V14.01,2013-01-07 11:36:00,
2013-01-07 04:41:00,38.7,15.9,17.72,NW,324,3.1,3.1,39,0.00,,CLR,0.00,VWS V14.01,2013-01-07 11:41:00,
2013-01-07 04:47:00,38.5,15.7,17.72,NW,324,3.1,3.1,39,0.00,,CLR,0.00,VWS V14.01,2013-01-07 11:47:00,
2013-01-07 04:52:00,38.3,15.5,17.72,WNW,302,3.6,3.6,39,0.00,,CLR,0.00,VWS V14.01,2013-01-07 11:52:00,
2013-01-07 04:57:00,38.1,15.4,17.72,North,1,3.6,4.0,39,0.00,,CLR,0.00,VWS V14.01,2013-01-07 11:57:00,
2013-01-07 05:02:00,37.9,15.2,17.72,North,1,3.1,3.6,39,0.00,,CLR,0.00,VWS V14.01,2013-01-07 12:02:00,
2013-01-07 05:08:00,37.6,14.9,17.72,North,1,3.1,3.1,39,0.00,,CLR,0.00,VWS V14.01,2013-01-07 12:08:00,
2013-01-07 05:14:00,37.4,14.7,17.72,North,0,3.1,3.1,39,0.00,,CLR,0.00,VWS V14.01,2013-01-07 12:14:00,
2013-01-07 05:19:00,37.4,15.3,17.72,North,0,4.0,4.0,40,0.00,,CLR,0.00,VWS V14.01,2013-01-07 12:19:00,
2013-01-07 05:24:00,37.2,15.1,17.72,North,0,3.6,3.6,40,0.00,,CLR,0.00,VWS V14.01,2013-01-07 12:24:00,
2013-01-07 05:30:00,37.2,15.7,17.72,North,1,3.6,3.6,41,0.00,,CLR,0.00,VWS V14.01,2013-01-07 12:30:00,
2013-01-07 05:35:00,37.2,15.7,17.72,North,1,4.0,4.0,41,0.00,,CLR,0.00,VWS V14.01,2013-01-07 12:35:00,
2013-01-07 05:41:00,37.0,15.5,17.72,North,357,3.1,3.1,41,0.00,,CLR,0.00,VWS V14.01,2013-01-07 12:41:00,
2013-01-07 05:46:00,37.0,15.5,17.72,NNW,330,3.6,4.0,41,0.00,,CLR,0.00,VWS V14.01,2013-01-07 12:46:00,
2013-01-07 05:51:00,37.0,15.5,17.72,North,1,4.9,4.9,41,0.00,,CLR,0.00,VWS V14.01,2013-01-07 12:51:00,
2013-01-07 05:56:00,36.9,15.9,17.72,North,6,4.0,4.0,42,0.00,,CLR,0.00,VWS V14.01,2013-01-07 12:56:00,
2013-01-07 06:02:00,36.9,15.9,17.72,North,7,4.0,4.0,42,0.00,,CLR,0.00,VWS V14.01,2013-01-07 13:02:00,
2013-01-07 06:07:00,36.9,15.9,17.72,North,7,2.7,4.0,42,0.00,,CLR,0.00,VWS V14.01,2013-01-07 13:07:00,
2013-01-07 06:12:00,37.0,16.6,17.72,NNW,341,3.6,3.6,43,0.00,,CLR,0.00,VWS V14.01,2013-01-07 13:12:00,
2013-01-07 06:18:00,37.4,16.4,17.72,North,353,0.0,0.0,42,0.00,,CLR,0.00,VWS V14.01,2013-01-07 13:18:00,
2013-01-07 06:24:00,37.4,16.4,17.72,North,6,0.0,0.0,42,0.00,,CLR,0.00,VWS V14.01,2013-01-07 13:24:00,
2013-01-07 06:29:00,37.4,16.4,17.72,North,7,0.0,0.0,42,0.00,,CLR,0.00,VWS V14.01,2013-01-07 13:29:00,
2013-01-07 06:35:00,37.2,16.3,17.72,North,10,3.6,3.6,42,0.00,,CLR,0.00,VWS V14.01,2013-01-07 13:35:00,
2013-01-07 06:40:00,37.6,16.6,17.72,North,10,2.7,2.7,42,0.00,,CLR,0.00,VWS V14.01,2013-01-07 13:40:00,
2013-01-07 06:46:00,37.6,16.6,17.72,North,11,2.2,2.7,42,0.00,,CLR,0.00,VWS V14.01,2013-01-07 13:46:00,
2013-01-07 06:51:00,37.9,16.4,17.72,North,8,2.7,4.0,41,0.00,,CLR,0.00,VWS V14.01,2013-01-07 13:51:00,
2013-01-07 06:57:00,37.9,16.4,17.72,North,357,4.0,4.0,41,0.00,,CLR,0.00,VWS V14.01,2013-01-07 13:57:00,
2013-01-07 07:03:00,37.6,16.0,17.72,North,0,3.1,3.1,41,0.00,,CLR,0.00,VWS V14.01,2013-01-07 14:03:00,
2013-01-07 07:08:00,37.4,15.9,17.72,North,1,4.0,4.0,41,0.00,,CLR,0.00,VWS V14.01,2013-01-07 14:08:00,
2013-01-07 07:14:00,37.2,15.7,17.72,North,1,3.1,3.6,41,0.00,,CLR,0.00,VWS V14.01,2013-01-07 14:14:00,
2013-01-07 07:19:00,36.9,15.4,17.72,North,1,3.1,3.1,41,0.00,,CLR,0.00,VWS V14.01,2013-01-07 14:19:00,
2013-01-07 07:25:00,36.7,15.2,17.72,North,1,4.0,4.0,41,0.00,,CLR,0.00,VWS V14.01,2013-01-07 14:25:00,
2013-01-07 07:30:00,36.3,14.9,17.72,North,1,3.6,3.6,41,0.00,,CLR,0.00,VWS V14.01,2013-01-07 14:30:00,
2013-01-07 07:36:00,36.3,15.4,17.72,North,357,4.0,4.0,42,0.00,,CLR,0.00,VWS V14.01,2013-01-07 14:36:00,
2013-01-07 07:42:00,36.1,15.3,17.72,NW,320,3.1,4.0,42,0.00,,CLR,0.00,VWS V14.01,2013-01-07 14:42:00,
2013-01-07 07:47:00,36.3,15.4,17.72,WNW,303,2.7,2.7,42,0.00,,CLR,0.00,VWS V14.01,2013-01-07 14:47:00,
2013-01-07 07:53:00,36.3,16.0,17.72,NW,308,3.6,3.6,43,0.00,,CLR,0.00,VWS V14.01,2013-01-07 14:53:00,
2013-01-07 07:59:00,36.3,16.0,17.72,North,357,4.0,4.0,43,0.00,,CLR,0.00,VWS V14.01,2013-01-07 14:59:00,
2013-01-07 08:04:00,36.5,16.7,17.72,NNW,345,4.0,4.0,44,0.00,,CLR,0.00,VWS V14.01,2013-01-07 15:04:00,
2013-01-07 08:10:00,36.9,17.0,17.72,NW,322,3.6,3.6,44,0.00,,CLR,0.00,VWS V14.01,2013-01-07 15:10:00,
2013-01-07 08:15:00,37.4,17.5,17.72,North,0,4.0,4.5,44,0.00,,CLR,0.00,VWS V14.01,2013-01-07 15:15:00,
2013-01-07 08:21:00,37.8,17.8,17.72,North,0,3.1,4.9,44,0.00,,CLR,0.00,VWS V14.01,2013-01-07 15:21:00,
2013-01-07 08:27:00,38.1,18.1,17.72,North,4,4.9,5.4,44,0.00,,CLR,0.00,VWS V14.01,2013-01-07 15:27:00,
2013-01-07 08:32:00,38.8,18.8,17.72,North,2,5.4,5.4,44,0.00,,CLR,0.00,VWS V14.01,2013-01-07 15:32:00,
2013-01-07 08:38:00,39.2,18.6,17.72,North,357,4.5,4.5,43,0.00,,CLR,0.00,VWS V14.01,2013-01-07 15:38:00,
2013-01-07 08:43:00,39.4,18.8,17.72,North,357,4.0,4.0,43,0.00,,CLR,0.00,VWS V14.01,2013-01-07 15:43:00,
2013-01-07 08:48:00,40.6,19.9,17.72,North,357,0.0,2.7,43,0.00,,CLR,0.00,VWS V14.01,2013-01-07 15:48:00,
2013-01-07 08:53:00,42.1,20.7,17.72,North,357,0.0,0.0,42,0.00,,CLR,0.00,VWS V14.01,2013-01-07 15:53:00,
2013-01-07 08:59:00,43.0,20.9,17.72,North,357,0.0,0.0,41,0.00,,CLR,0.00,VWS V14.01,2013-01-07 15:59:00,
2013-01-07 09:04:00,43.5,20.8,17.72,NNW,345,2.7,2.7,40,0.00,,CLR,0.00,VWS V14.01,2013-01-07 16:04:00,
2013-01-07 09:09:00,44.1,20.7,17.72,NNW,345,2.7,2.7,39,0.00,,CLR,0.00,VWS V14.01,2013-01-07 16:09:00,
2013-01-07 09:14:00,44.1,20.7,17.72,NNW,345,0.0,0.0,39,0.00,,CLR,0.00,VWS V14.01,2013-01-07 16:14:00,
2013-01-07 09:19:00,45.1,21.1,17.72,NNW,344,2.7,4.0,38,0.00,,CLR,0.00,VWS V14.01,2013-01-07 16:19:00,
2013-01-07 09:25:00,45.5,20.8,17.72,NNW,344,2.2,2.2,37,0.00,,CLR,0.00,VWS V14.01,2013-01-07 16:25:00,
2013-01-07 09:30:00,45.9,21.1,17.72,West,265,4.9,4.9,37,0.00,,CLR,0.00,VWS V14.01,2013-01-07 16:30:00,
2013-01-07 09:35:00,46.4,19.6,17.72,West,264,3.6,3.6,34,0.00,,CLR,0.00,VWS V14.01,2013-01-07 16:35:00,
2013-01-07 09:41:00,46.4,19.6,17.72,WNW,284,4.9,4.9,34,0.00,,CLR,0.00,VWS V14.01,2013-01-07 16:41:00,
2013-01-07 09:46:00,47.8,20.1,17.72,WNW,285,5.4,5.4,33,0.00,,CLR,0.00,VWS V14.01,2013-01-07 16:46:00,
2013-01-07 09:52:00,48.4,19.9,17.72,WNW,284,6.3,6.3,32,0.00,,CLR,0.00,VWS V14.01,2013-01-07 16:52:00,
2013-01-07 09:57:00,48.4,19.9,17.72,WSW,258,5.8,5.8,32,0.00,,CLR,0.00,VWS V14.01,2013-01-07 16:57:00,
2013-01-07 10:02:00,49.8,20.4,17.72,WSW,244,5.8,5.8,31,0.00,,CLR,0.00,VWS V14.01,2013-01-07 17:02:00,
2013-01-07 10:09:00,50.4,20.9,17.72,SW,231,4.0,4.0,31,0.00,,CLR,0.00,VWS V14.01,2013-01-07 17:09:00,
2013-01-07 10:14:00,50.9,20.6,17.72,West,281,0.0,0.0,30,0.00,,CLR,0.00,VWS V14.01,2013-01-07 17:14:00,
2013-01-07 10:20:00,50.9,20.6,17.72,South,190,4.0,4.0,30,0.00,,CLR,0.00,VWS V14.01,2013-01-07 17:20:00,
2013-01-07 10:26:00,50.9,20.6,17.72,South,191,5.8,5.8,30,0.00,,CLR,0.00,VWS V14.01,2013-01-07 17:26:00,
2013-01-07 10:31:00,50.9,19.8,17.72,South,186,0.0,0.0,29,0.00,,CLR,0.00,VWS V14.01,2013-01-07 17:31:00,
2013-01-07 10:37:00,51.1,20.0,17.72,South,186,4.0,4.0,29,0.00,,CLR,0.00,VWS V14.01,2013-01-07 17:37:00,
2013-01-07 10:42:00,51.4,20.3,17.72,SW,218,3.1,3.6,29,0.00,,CLR,0.00,VWS V14.01,2013-01-07 17:42:00,
2013-01-07 10:47:00,51.6,20.4,17.72,WSW,252,3.6,5.8,29,0.00,,CLR,0.00,VWS V14.01,2013-01-07 17:47:00,
2013-01-07 10:53:00,52.3,20.2,17.72,SW,235,3.1,3.1,28,0.00,,CLR,0.00,VWS V14.01,2013-01-07 17:53:00,
2013-01-07 10:59:00,52.5,20.4,17.72,SW,227,8.1,8.1,28,0.00,,CLR,0.00,VWS V14.01,2013-01-07 17:59:00,
2013-01-07 11:05:00,53.1,20.0,17.72,WNW,286,11.0,13.6,27,0.00,,CLR,0.00,VWS V14.01,2013-01-07 18:05:00,
2013-01-07 11:10:00,53.1,20.0,17.72,West,281,8.3,12.3,27,0.00,,CLR,0.00,VWS V14.01,2013-01-07 18:10:00,
2013-01-07 11:16:00,53.4,19.4,17.72,WNW,294,8.7,8.7,26,0.00,,CLR,0.00,VWS V14.01,2013-01-07 18:16:00,
2013-01-07 11:22:00,53.8,19.7,17.72,WSW,253,13.2,13.2,26,0.00,,CLR,0.00,VWS V14.01,2013-01-07 18:22:00,
2013-01-07 11:27:00,54.3,20.2,17.72,WSW,253,13.2,13.2,26,0.00,,CLR,0.00,VWS V14.01,2013-01-07 18:27:00,
2013-01-07 11:32:00,54.7,20.5,17.72,West,280,12.3,12.3,26,0.00,,CLR,0.00,VWS V14.01,2013-01-07 18:32:00,
2013-01-07 11:37:00,55.0,19.9,17.72,WNW,282,14.5,14.5,25,0.00,,CLR,0.00,VWS V14.01,2013-01-07 18:37:00,
2013-01-07 11:43:00,55.4,20.2,17.72,WNW,296,17.0,17.0,25,0.00,,CLR,0.00,VWS V14.01,2013-01-07 18:43:00,
2013-01-07 11:48:00,55.6,20.3,17.72,West,277,11.4,11.4,25,0.00,,CLR,0.00,VWS V14.01,2013-01-07 18:48:00,
2013-01-07 11:53:00,55.6,20.3,17.72,WSW,254,10.5,12.3,25,0.00,,CLR,0.00,VWS V14.01,2013-01-07 18:53:00,
2013-01-07 11:59:00,55.6,20.3,17.72,West,267,15.4,15.4,25,0.00,,CLR,0.00,VWS V14.01,2013-01-07 18:59:00,
2013-01-07 12:05:00,56.7,18.3,17.72,WNW,296,8.1,8.1,22,0.00,,CLR,0.00,VWS V14.01,2013-01-07 19:05:00,
2013-01-07 12:10:00,56.8,18.4,17.72,WNW,288,10.5,10.5,22,0.00,,CLR,0.00,VWS V14.01,2013-01-07 19:10:00,
2013-01-07 12:16:00,57.2,18.7,17.72,WNW,284,7.6,10.5,22,0.00,,CLR,0.00,VWS V14.01,2013-01-07 19:16:00,
2013-01-07 12:22:00,57.2,18.7,17.72,West,275,7.6,15.4,22,0.00,,CLR,0.00,VWS V14.01,2013-01-07 19:22:00,
2013-01-07 12:27:00,58.3,16.2,17.72,West,279,10.5,10.5,19,0.00,,CLR,0.00,VWS V14.01,2013-01-07 19:27:00,
2013-01-07 12:33:00,58.5,16.4,17.72,West,273,14.1,14.1,19,0.00,,CLR,0.00,VWS V14.01,2013-01-07 19:33:00,
2013-01-07 12:38:00,58.6,16.5,17.72,West,277,10.1,11.0,19,0.00,,CLR,0.00,VWS V14.01,2013-01-07 19:38:00,
2013-01-07 12:44:00,59.2,17.0,17.72,West,280,8.7,8.7,19,0.00,,CLR,0.00,VWS V14.01,2013-01-07 19:44:00,
2013-01-07 12:50:00,59.2,17.0,17.72,WNW,297,8.3,11.9,19,0.00,,CLR,0.00,VWS V14.01,2013-01-07 19:50:00,
2013-01-07 12:55:00,59.4,17.1,17.72,WNW,286,8.1,8.1,19,0.00,,CLR,0.00,VWS V14.01,2013-01-07 19:55:00,
2013-01-07 13:00:00,59.7,17.4,17.72,WNW,302,11.0,11.0,19,0.00,,CLR,0.00,VWS V14.01,2013-01-07 20:00:00,
2013-01-07 13:05:00,59.7,17.4,17.72,West,275,8.3,8.3,19,0.00,,CLR,0.00,VWS V14.01,2013-01-07 20:05:00,
2013-01-07 13:11:00,60.4,18.0,17.72,West,274,10.1,10.1,19,0.00,,CLR,0.00,VWS V14.01,2013-01-07 20:11:00,
2013-01-07 13:16:00,60.6,18.2,17.72,WNW,282,10.5,10.5,19,0.00,,CLR,0.00,VWS V14.01,2013-01-07 20:16:00,
2013-01-07 13:21:00,61.0,18.5,17.72,WNW,282,10.5,10.5,19,0.00,,CLR,0.00,VWS V14.01,2013-01-07 20:21:00,
2013-01-07 13:28:00,61.0,18.5,17.72,West,273,16.3,16.3,19,0.00,,CLR,0.00,VWS V14.01,2013-01-07 20:28:00,
2013-01-07 13:33:00,61.3,18.8,17.72,WNW,290,10.1,11.0,19,0.00,,CLR,0.00,VWS V14.01,2013-01-07 20:33:00,
2013-01-07 13:35:00,61.3,18.8,17.72,West,277,12.8,12.8,19,0.00,,CLR,0.00,VWS V14.01,2013-01-07 20:35:00,
2013-01-07 13:40:00,61.9,19.2,17.72,WNW,294,10.1,10.1,19,0.00,,CLR,0.00,VWS V14.01,2013-01-07 20:40:00,
2013-01-07 13:47:00,61.7,15.1,17.72,West,263,12.8,12.8,16,0.00,,CLR,0.00,VWS V14.01,2013-01-07 20:47:00,
2013-01-07 13:52:00,61.7,15.1,17.72,West,272,12.8,12.8,16,0.00,,CLR,0.00,VWS V14.01,2013-01-07 20:52:00,
2013-01-07 13:57:00,61.3,14.8,17.72,West,259,15.0,17.4,16,0.00,,CLR,0.00,VWS V14.01,2013-01-07 20:57:00,
2013-01-07 14:02:00,61.0,14.5,17.72,West,281,13.2,13.2,16,0.00,,CLR,0.00,VWS V14.01,2013-01-07 21:02:00,
2013-01-07 14:08:00,61.0,14.5,17.72,WSW,251,8.7,8.7,16,0.00,,CLR,0.00,VWS V14.01,2013-01-07 21:08:00,
2013-01-07 14:13:00,61.0,14.5,17.72,West,275,16.3,17.4,16,0.00,,CLR,0.00,VWS V14.01,2013-01-07 21:13:00,
2013-01-07 14:18:00,61.0,14.5,17.72,WSW,258,13.2,13.2,16,0.00,,CLR,0.00,VWS V14.01,2013-01-07 21:18:00,
2013-01-07 14:25:00,61.9,15.2,17.72,WNW,286,12.8,12.8,16,0.00,,CLR,0.00,VWS V14.01,2013-01-07 21:25:00,
2013-01-07 14:30:00,62.2,15.5,17.72,West,262,12.8,12.8,16,0.00,,CLR,0.00,VWS V14.01,2013-01-07 21:30:00,
2013-01-07 14:35:00,62.2,15.5,17.72,WNW,283,9.6,15.9,16,0.00,,CLR,0.00,VWS V14.01,2013-01-07 21:35:00,
2013-01-07 14:42:00,62.2,15.5,17.72,West,280,10.5,14.1,16,0.00,,CLR,0.00,VWS V14.01,2013-01-07 21:42:00,
2013-01-07 14:47:00,62.6,15.8,17.72,West,276,10.5,10.5,16,0.00,,CLR,0.00,VWS V14.01,2013-01-07 21:47:00,
2013-01-07 14:53:00,63.1,16.2,17.72,West,273,14.1,14.1,16,0.00,,CLR,0.00,VWS V14.01,2013-01-07 21:53:00,
2013-01-07 14:58:00,63.3,16.4,17.72,WNW,287,16.3,16.3,16,0.00,,CLR,0.00,VWS V14.01,2013-01-07 21:58:00,
2013-01-07 15:04:00,63.9,16.8,17.72,WNW,299,15.0,15.0,16,0.00,,CLR,0.00,VWS V14.01,2013-01-07 22:04:00,
2013-01-07 15:10:00,64.0,17.0,17.72,WNW,291,16.8,16.8,16,0.00,,CLR,0.00,VWS V14.01,2013-01-07 22:10:00,
2013-01-07 15:15:00,64.2,17.1,17.72,WNW,299,10.5,10.5,16,0.00,,CLR,0.00,VWS V14.01,2013-01-07 22:15:00,
2013-01-07 15:20:00,64.2,17.1,17.72,WNW,287,12.3,12.3,16,0.00,,CLR,0.00,VWS V14.01,2013-01-07 22:20:00,
2013-01-07 15:25:00,64.6,15.9,17.72,West,281,14.5,14.5,15,0.00,,CLR,0.00,VWS V14.01,2013-01-07 22:25:00,
2013-01-07 15:31:00,64.6,15.9,17.72,West,280,8.3,10.1,15,0.00,,CLR,0.00,VWS V14.01,2013-01-07 22:31:00,
2013-01-07 15:36:00,65.1,16.4,17.72,West,274,8.7,8.7,15,0.00,,CLR,0.00,VWS V14.01,2013-01-07 22:36:00,
2013-01-07 15:42:00,65.5,16.6,17.72,WNW,290,13.2,13.2,15,0.00,,CLR,0.00,VWS V14.01,2013-01-07 22:42:00,
2013-01-07 15:48:00,65.7,16.8,17.72,West,272,12.3,12.3,15,0.00,,CLR,0.00,VWS V14.01,2013-01-07 22:48:00,
2013-01-07 15:53:00,65.7,16.8,17.72,WNW,292,8.1,8.1,15,0.00,,CLR,0.00,VWS V14.01,2013-01-07 22:53:00,
2013-01-07 16:00:00,66.0,17.1,17.72,WNW,295,10.5,10.5,15,0.00,,CLR,0.00,VWS V14.01,2013-01-07 23:00:00,
2013-01-07 16:05:00,65.8,16.9,17.72,WNW,302,8.1,10.5,15,0.00,,CLR,0.00,VWS V14.01,2013-01-07 23:05:00,
2013-01-07 16:10:00,65.8,16.9,17.72,WNW,284,15.4,15.4,15,0.00,,CLR,0.00,VWS V14.01,2013-01-07 23:10:00,
2013-01-07 16:16:00,65.5,16.6,17.72,NW,306,11.0,11.9,15,0.00,,CLR,0.00,VWS V14.01,2013-01-07 23:16:00,
2013-01-07 16:21:00,65.7,16.8,17.72,WSW,253,6.3,6.3,15,0.00,,CLR,0.00,VWS V14.01,2013-01-07 23:21:00,
2013-01-07 16:27:00,65.5,16.6,17.72,WNW,290,10.1,10.5,15,0.00,,CLR,0.00,VWS V14.01,2013-01-07 23:27:00,
2013-01-07 16:32:00,65.3,16.5,17.72,NW,310,12.3,12.3,15,0.00,,CLR,0.00,VWS V14.01,2013-01-07 23:32:00,
2013-01-07 16:38:00,64.6,15.9,17.72,WNW,292,14.5,14.5,15,0.00,,CLR,0.00,VWS V14.01,2013-01-07 23:38:00,
2013-01-07 16:43:00,64.6,15.9,17.72,NW,318,12.8,13.2,15,0.00,,CLR,0.00,VWS V14.01,2013-01-07 23:43:00,
2013-01-07 16:48:00,63.5,16.5,17.72,West,278,15.9,15.9,16,0.00,,CLR,0.00,VWS V14.01,2013-01-07 23:48:00,
2013-01-07 16:55:00,63.5,16.5,17.72,West,281,11.4,13.2,16,0.00,,CLR,0.00,VWS V14.01,2013-01-07 23:55:00,
2013-01-07 17:00:00,63.5,16.5,17.72,WNW,283,10.5,10.5,16,0.00,,CLR,0.00,VWS V14.01,2013-01-08 00:00:00,
2013-01-07 17:05:00,63.0,16.1,17.72,West,266,12.8,12.8,16,0.00,,CLR,0.00,VWS V14.01,2013-01-08 00:05:00,
2013-01-07 17:12:00,62.2,15.5,17.72,WNW,292,12.8,12.8,16,0.00,,CLR,0.00,VWS V14.01,2013-01-08 00:12:00,
2013-01-07 17:17:00,62.1,15.4,17.72,West,280,11.0,12.3,16,0.00,,CLR,0.00,VWS V14.01,2013-01-08 00:17:00,
2013-01-07 17:23:00,61.7,15.1,17.72,WNW,285,8.7,8.7,16,0.00,,CLR,0.00,VWS V14.01,2013-01-08 00:23:00,
2013-01-07 17:28:00,61.7,15.1,17.72,West,279,7.6,8.3,16,0.00,,CLR,0.00,VWS V14.01,2013-01-08 00:28:00,
2013-01-07 17:33:00,61.3,14.8,17.72,West,264,8.7,8.7,16,0.00,,CLR,0.00,VWS V14.01,2013-01-08 00:33:00,
2013-01-07 17:39:00,61.2,14.6,17.72,WSW,239,5.4,5.4,16,0.00,,CLR,0.00,VWS V14.01,2013-01-08 00:39:00,
2013-01-07 17:45:00,61.2,14.6,17.72,West,279,5.8,5.8,16,0.00,,CLR,0.00,VWS V14.01,2013-01-08 00:45:00,
2013-01-07 17:51:00,61.2,14.6,17.72,WSW,253,5.4,5.4,16,0.00,,CLR,0.00,VWS V14.01,2013-01-08 00:51:00,
2013-01-07 17:56:00,59.9,15.0,17.72,WSW,244,4.0,4.0,17,0.00,,CLR,0.00,VWS V14.01,2013-01-08 00:56:00,
2013-01-07 18:02:00,59.7,14.9,17.72,WSW,239,4.0,6.3,17,0.00,,CLR,0.00,VWS V14.01,2013-01-08 01:02:00,
2013-01-07 18:08:00,59.7,14.9,17.72,SW,225,5.8,5.8,17,0.00,,CLR,0.00,VWS V14.01,2013-01-08 01:08:00,
2013-01-07 18:13:00,59.7,14.9,17.72,WSW,237,7.2,8.3,17,0.00,,CLR,0.00,VWS V14.01,2013-01-08 01:13:00,
2013-01-07 18:19:00,58.5,13.8,17.72,WSW,253,7.2,7.2,17,0.00,,CLR,0.00,VWS V14.01,2013-01-08 01:19:00,
2013-01-07 18:25:00,58.3,13.7,17.72,WSW,246,3.1,5.8,17,0.00,,CLR,0.00,VWS V14.01,2013-01-08 01:25:00,
2013-01-07 18:30:00,58.1,13.5,17.72,West,268,6.7,6.7,17,0.00,,CLR,0.00,VWS V14.01,2013-01-08 01:30:00,
2013-01-07 18:36:00,58.1,13.5,17.72,WNW,300,6.3,8.7,17,0.00,,CLR,0.00,VWS V14.01,2013-01-08 01:36:00,
2013-01-07 18:41:00,58.1,13.5,17.72,NW,313,10.1,10.1,17,0.00,,CLR,0.00,VWS V14.01,2013-01-08 01:41:00,
2013-01-07 18:47:00,58.5,13.8,17.72,WNW,288,6.3,10.5,17,0.00,,CLR,0.00,VWS V14.01,2013-01-08 01:47:00,
2013-01-07 18:52:00,58.5,13.8,17.72,WNW,299,8.3,10.1,17,0.00,,CLR,0.00,VWS V14.01,2013-01-08 01:52:00,
2013-01-07 18:58:00,58.5,13.8,17.72,WNW,295,10.5,12.8,17,0.00,,CLR,0.00,VWS V14.01,2013-01-08 01:58:00,
2013-01-07 19:04:00,58.1,13.5,17.72,NNW,331,9.2,9.2,17,0.00,,CLR,0.00,VWS V14.01,2013-01-08 02:04:00,
2013-01-07 19:11:00,58.1,13.5,17.72,WNW,302,13.2,13.2,17,0.00,,CLR,0.00,VWS V14.01,2013-01-08 02:11:00,
2013-01-07 19:16:00,58.1,13.5,17.72,NW,325,8.3,8.3,17,0.00,,CLR,0.00,VWS V14.01,2013-01-08 02:16:00,
2013-01-07 19:22:00,58.1,13.5,17.72,NW,322,8.1,8.1,17,0.00,,CLR,0.00,VWS V14.01,2013-01-08 02:22:00,
2013-01-07 19:27:00,57.7,13.2,17.72,NW,305,6.7,6.7,17,0.00,,CLR,0.00,VWS V14.01,2013-01-08 02:27:00,
2013-01-07 19:33:00,57.6,13.1,17.72,NW,309,7.6,7.6,17,0.00,,CLR,0.00,VWS V14.01,2013-01-08 02:33:00,
2013-01-07 19:38:00,57.4,12.9,17.72,WNW,299,8.3,8.3,17,0.00,,CLR,0.00,VWS V14.01,2013-01-08 02:38:00,
2013-01-07 19:44:00,57.4,12.9,17.72,WNW,295,8.7,10.1,17,0.00,,CLR,0.00,VWS V14.01,2013-01-08 02:44:00,
2013-01-07 19:50:00,57.4,12.9,17.72,NW,318,8.7,10.5,17,0.00,,CLR,0.00,VWS V14.01,2013-01-08 02:50:00,
2013-01-07 19:55:00,57.4,12.9,17.72,NW,318,10.1,10.1,17,0.00,,CLR,0.00,VWS V14.01,2013-01-08 02:55:00,
2013-01-07 20:01:00,57.4,12.9,17.72,West,280,11.0,11.0,17,0.00,,CLR,0.00,VWS V14.01,2013-01-08 03:01:00,
2013-01-07 20:06:00,57.4,12.9,17.72,WNW,287,5.8,5.8,17,0.00,,CLR,0.00,VWS V14.01,2013-01-08 03:06:00,
2013-01-07 20:12:00,56.8,12.5,17.72,WNW,295,12.8,12.8,17,0.00,,CLR,0.00,VWS V14.01,2013-01-08 03:12:00,
2013-01-07 20:17:00,57.0,12.7,17.72,NW,314,10.5,10.5,17,0.00,,CLR,0.00,VWS V14.01,2013-01-08 03:17:00,
2013-01-07 20:23:00,57.0,12.7,17.72,WNW,292,5.8,5.8,17,0.00,,CLR,0.00,VWS V14.01,2013-01-08 03:23:00,
2013-01-07 20:29:00,56.8,12.5,17.72,NW,307,10.1,10.1,17,0.00,,CLR,0.00,VWS V14.01,2013-01-08 03:29:00,
2013-01-07 20:34:00,56.7,12.4,17.72,WNW,301,7.6,7.6,17,0.00,,CLR,0.00,VWS V14.01,2013-01-08 03:34:00,
2013-01-07 20:39:00,56.5,12.2,17.72,WNW,290,3.1,3.1,17,0.00,,CLR,0.00,VWS V14.01,2013-01-08 03:39:00,
2013-01-07 20:46:00,56.3,12.1,17.72,NW,305,0.0,0.0,17,0.00,,CLR,0.00,VWS V14.01,2013-01-08 03:46:00,
2013-01-07 20:51:00,56.3,12.1,17.72,NW,305,0.0,0.0,17,0.00,,CLR,0.00,VWS V14.01,2013-01-08 03:51:00,
2013-01-07 20:57:00,55.0,12.3,17.72,NW,305,0.0,0.0,18,0.00,,CLR,0.00,VWS V14.01,2013-01-08 03:57:00,
2013-01-07 21:02:00,54.7,12.0,17.72,WNW,302,0.0,0.0,18,0.00,,CLR,0.00,VWS V14.01,2013-01-08 04:02:00,
2013-01-07 21:08:00,54.0,11.4,17.72,West,261,0.0,0.0,18,0.00,,CLR,0.00,VWS V14.01,2013-01-08 04:08:00,
2013-01-07 21:14:00,53.8,11.3,17.72,West,259,2.7,2.7,18,0.00,,CLR,0.00,VWS V14.01,2013-01-08 04:14:00,
2013-01-07 21:19:00,53.6,11.1,17.72,WSW,252,0.0,0.0,18,0.00,,CLR,0.00,VWS V14.01,2013-01-08 04:19:00,
2013-01-07 21:24:00,53.6,11.1,17.72,WSW,250,0.0,0.0,18,0.00,,CLR,0.00,VWS V14.01,2013-01-08 04:24:00,
2013-01-07 21:30:00,53.4,11.0,17.72,WSW,250,0.0,0.0,18,0.00,,CLR,0.00,VWS V14.01,2013-01-08 04:30:00,
2013-01-07 21:36:00,53.2,10.9,17.72,WSW,249,0.0,0.0,18,0.00,,CLR,0.00,VWS V14.01,2013-01-08 04:36:00,
2013-01-07 21:42:00,53.2,10.9,17.72,WSW,240,0.0,3.1,18,0.00,,CLR,0.00,VWS V14.01,2013-01-08 04:42:00,
2013-01-07 21:47:00,52.0,9.8,17.72,WSW,240,0.0,0.0,18,0.00,,CLR,0.00,VWS V14.01,2013-01-08 04:47:00,
2013-01-07 21:52:00,51.6,10.7,17.72,WSW,240,0.0,0.0,19,0.00,,CLR,0.00,VWS V14.01,2013-01-08 04:52:00,
2013-01-07 21:57:00,51.4,10.6,17.72,WSW,240,0.0,0.0,19,0.00,,CLR,0.00,VWS V14.01,2013-01-08 04:57:00,
2013-01-07 22:01:00,51.4,10.6,17.72,WSW,241,4.0,4.0,19,0.00,,CLR,0.00,VWS V14.01,2013-01-08 05:01:00,
2013-01-07 22:04:00,51.4,10.6,17.72,WSW,241,3.6,3.6,19,0.00,,CLR,0.00,VWS V14.01,2013-01-08 05:04:00,
2013-01-07 22:08:00,51.6,10.7,17.72,WNW,299,2.7,3.1,19,0.00,,CLR,0.00,VWS V14.01,2013-01-08 05:08:00,
2013-01-07 22:10:00,51.6,10.7,17.72,WNW,302,2.7,2.7,19,0.00,,CLR,0.00,VWS V14.01,2013-01-08 05:10:00,
2013-01-07 22:17:00,51.8,9.7,17.72,WSW,247,3.6,4.0,18,0.00,,CLR,0.00,VWS V14.01,2013-01-08 05:17:00,
2013-01-07 22:22:00,51.8,9.7,17.72,WSW,249,3.6,3.6,18,0.00,,CLR,0.00,VWS V14.01,2013-01-08 05:22:00,
2013-01-07 22:27:00,51.6,10.7,17.72,WSW,244,4.0,4.0,19,0.00,,CLR,0.00,VWS V14.01,2013-01-08 05:27:00,
2013-01-07 22:32:00,51.6,10.7,17.72,WSW,244,3.6,3.6,19,0.00,,CLR,0.00,VWS V14.01,2013-01-08 05:32:00,
2013-01-07 22:37:00,51.4,10.6,17.72,WSW,244,2.7,2.7,19,0.00,,CLR,0.00,VWS V14.01,2013-01-08 05:37:00,
2013-01-07 22:42:00,51.4,10.6,17.72,WSW,242,0.0,0.0,19,0.00,,CLR,0.00,VWS V14.01,2013-01-08 05:42:00,
2013-01-07 22:49:00,51.3,10.4,17.72,WSW,243,0.0,0.0,19,0.00,,CLR,0.00,VWS V14.01,2013-01-08 05:49:00,
2013-01-07 22:54:00,51.1,10.3,17.72,West,274,0.0,4.0,19,0.00,,CLR,0.00,VWS V14.01,2013-01-08 05:54:00,
2013-01-07 22:59:00,50.7,10.0,17.72,West,274,0.0,0.0,19,0.00,,CLR,0.00,VWS V14.01,2013-01-08 05:59:00,
2013-01-07 23:06:00,50.2,9.5,17.72,West,274,0.0,0.0,19,0.00,,CLR,0.00,VWS V14.01,2013-01-08 06:06:00,
2013-01-07 23:11:00,50.2,9.5,17.72,West,271,3.1,3.1,19,0.00,,CLR,0.00,VWS V14.01,2013-01-08 06:11:00,
2013-01-07 23:17:00,50.0,9.4,17.72,SW,231,3.1,3.1,19,0.00,,CLR,0.00,VWS V14.01,2013-01-08 06:17:00,
2013-01-07 23:22:00,50.4,9.7,17.72,WSW,252,3.6,3.6,19,0.00,,CLR,0.00,VWS V14.01,2013-01-08 06:22:00,
2013-01-07 23:27:00,50.4,9.7,17.72,SW,236,4.9,4.9,19,0.00,,CLR,0.00,VWS V14.01,2013-01-08 06:27:00,
2013-01-07 23:34:00,50.9,10.1,17.72,SW,214,2.7,2.7,19,0.00,,CLR,0.00,VWS V14.01,2013-01-08 06:34:00,
2013-01-07 23:39:00,51.1,10.3,17.72,SW,233,3.1,3.1,19,0.00,,CLR,0.00,VWS V14.01,2013-01-08 06:39:00,
2013-01-07 23:44:00,51.1,10.3,17.72,WSW,238,3.1,4.0,19,0.00,,CLR,0.00,VWS V14.01,2013-01-08 06:44:00,
2013-01-07 23:50:00,51.1,10.3,17.72,SW,233,3.6,4.0,19,0.00,,CLR,0.00,VWS V14.01,2013-01-08 06:50:00,
2013-01-07 23:56:00,51.1,10.3,17.72,WSW,250,4.0,4.0,19,0.00,,CLR,0.00,VWS V14.01,2013-01-08 06:56:00,